Time;durP1;ratioP1;P1;durP2;ratioP2;P2;SDS_P1;SDS_P2;PMS_P1;PMS_P2;Temp;Humidity;BMP_temperature;BMP_pressure;BME280_temperature;BME280_humidity;BME280_pressure;Samples;Min_cycle;Max_cycle;Signal;HPM_P1;HPM_P2
2022/04/15 00:01:05;;;;;;;34.20;23.65;;;;;;;-145.45;100.00;62759.84;5301666;28;20082;-78
2022/04/15 00:03:36;;;;;;;50.90;30.77;;;;;;;-145.45;100.00;62759.84;5301239;28;20025;-77
2022/04/15 00:06:08;;;;;;;47.38;30.75;;;;;;;-145.45;100.00;62759.84;5300065;28;20036;-77
2022/04/15 00:08:40;;;;;;;50.15;29.08;;;;;;;-145.45;100.00;62759.84;5300605;28;20020;-77
2022/04/15 00:11:12;;;;;;;47.83;30.85;;;;;;;-145.45;100.00;62759.84;5302536;28;20033;-78
2022/04/15 00:13:45;;;;;;;38.42;25.83;;;;;;;-145.45;100.00;62759.84;5299042;28;20041;-77
2022/04/15 00:16:16;;;;;;;47.17;28.42;;;;;;;-145.45;100.00;62759.84;5299278;28;20034;-78
2022/04/15 00:18:48;;;;;;;37.47;23.02;;;;;;;-145.45;100.00;62759.84;5299494;28;20036;-77
2022/04/15 00:21:19;;;;;;;37.20;25.70;;;;;;;-145.45;100.00;62759.84;5298561;28;20394;-77
2022/04/15 00:23:55;;;;;;;41.45;25.75;;;;;;;-145.45;100.00;62759.84;5300916;28;20020;-78
2022/04/15 00:26:26;;;;;;;39.22;26.40;;;;;;;-145.45;100.00;62759.84;5299437;28;20037;-77
2022/04/15 00:28:58;;;;;;;43.90;26.55;;;;;;;-145.45;100.00;62759.84;5299203;28;20079;-78
2022/04/15 00:31:29;;;;;;;30.70;20.75;;;;;;;-145.45;100.00;62759.84;5299738;28;20487;-78
2022/04/15 00:34:04;;;;;;;36.53;21.98;;;;;;;-145.45;100.00;62759.84;5302922;28;20032;-77
2022/04/15 00:36:35;;;;;;;41.78;26.85;;;;;;;-145.45;100.00;62759.84;5298393;28;20028;-78
2022/04/15 00:39:06;;;;;;;41.28;23.80;;;;;;;-145.45;100.00;62759.84;5298470;28;20035;-78
2022/04/15 00:41:43;;;;;;;54.33;30.75;;;;;;;-145.45;100.00;62759.84;5281612;28;20043;-77
2022/04/15 00:44:14;;;;;;;35.05;22.77;;;;;;;-145.45;100.00;62759.84;5296510;28;20024;-78
2022/04/15 00:46:45;;;;;;;31.92;20.08;;;;;;;-145.45;100.00;62759.84;5300754;28;20103;-78
2022/04/15 00:49:17;;;;;;;35.65;22.10;;;;;;;-145.45;100.00;62759.84;5300190;28;20056;-77
2022/04/15 00:51:50;;;;;;;41.83;26.08;;;;;;;-145.45;100.00;62759.84;5303622;28;20425;-77
2022/04/15 00:54:23;;;;;;;49.08;30.30;;;;;;;-145.45;100.00;62759.84;5296725;28;20029;-77
2022/04/15 00:56:58;;;;;;;31.98;20.65;;;;;;;-145.45;100.00;62759.84;5298687;28;20384;-77
2022/04/15 00:59:30;;;;;;;35.55;22.23;;;;;;;-145.45;100.00;62759.84;5296500;28;20538;-77
2022/04/15 01:02:03;;;;;;;38.60;22.23;;;;;;;-145.45;100.00;62759.84;5299865;28;20063;-77
2022/04/15 01:04:35;;;;;;;39.00;24.45;;;;;;;-145.45;100.00;62759.84;5299312;28;20514;-77
2022/04/15 01:07:10;;;;;;;48.83;25.20;;;;;;;-145.45;100.00;62759.84;5298423;28;20421;-77
2022/04/15 01:09:44;;;;;;;42.97;23.42;;;;;;;-145.45;100.00;62759.84;5299948;28;20032;-78
2022/04/15 01:12:17;;;;;;;40.00;22.27;;;;;;;-145.45;100.00;62759.84;5301137;28;20092;-78
2022/04/15 01:14:50;;;;;;;43.15;23.08;;;;;;;-145.45;100.00;62759.84;5300534;28;20443;-77
2022/04/15 01:17:21;;;;;;;42.33;22.83;;;;;;;-145.45;100.00;62759.84;5300703;28;20048;-78
2022/04/15 01:19:54;;;;;;;38.10;21.45;;;;;;;-145.45;100.00;62759.84;5296688;28;20035;-78
2022/04/15 01:22:31;;;;;;;47.38;25.23;;;;;;;-145.45;100.00;62759.84;5299593;28;20020;-78
2022/04/15 01:25:04;;;;;;;52.00;28.17;;;;;;;-145.45;100.00;62759.84;5296166;28;20060;-78
2022/04/15 01:27:37;;;;;;;60.53;28.33;;;;;;;-145.45;100.00;62759.84;5299032;28;20791;-78
2022/04/15 01:30:16;;;;;;;48.47;23.35;;;;;;;-145.45;100.00;62759.84;5300281;28;20033;-78
2022/04/15 01:32:48;;;;;;;67.18;30.77;;;;;;;-145.45;100.00;62759.84;5305834;28;20032;-78
2022/04/15 01:35:20;;;;;;;52.28;27.02;;;;;;;-145.45;100.00;62759.84;5297814;28;20773;-78
2022/04/15 01:37:51;;;;;;;49.38;25.77;;;;;;;-145.45;100.00;62759.84;5296077;28;20106;-78
2022/04/15 01:40:23;;;;;;;53.95;29.40;;;;;;;-145.45;100.00;62759.84;5296446;28;20040;-78
2022/04/15 01:42:54;;;;;;;52.85;27.95;;;;;;;-145.45;100.00;62759.84;5302592;28;20488;-77
2022/04/15 01:45:25;;;;;;;36.28;20.50;;;;;;;-145.45;100.00;62759.84;5299190;28;20548;-78
2022/04/15 01:47:56;;;;;;;34.50;20.00;;;;;;;-145.45;100.00;62759.84;5281169;28;20036;-78
2022/04/15 01:50:28;;;;;;;36.47;19.70;;;;;;;-145.45;100.00;62759.84;5281657;28;20393;-77
2022/04/15 01:53:00;;;;;;;41.13;22.33;;;;;;;-145.45;100.00;62759.84;5307828;28;20538;-78
2022/04/15 01:55:31;;;;;;;40.30;23.13;;;;;;;-145.45;100.00;62759.84;5301949;28;20032;-79
2022/04/15 01:58:02;;;;;;;34.70;19.90;;;;;;;-145.45;100.00;62759.84;5299977;28;20036;-78
2022/04/15 02:00:33;;;;;;;41.55;21.42;;;;;;;-145.45;100.00;62759.84;5302980;28;20031;-78
2022/04/15 02:03:05;;;;;;;41.28;20.45;;;;;;;-145.45;100.00;62759.84;5288810;28;20040;-78
2022/04/15 02:05:39;;;;;;;39.85;21.30;;;;;;;-145.45;100.00;62759.84;5294428;28;20071;-78
2022/04/15 02:08:10;;;;;;;39.05;21.42;;;;;;;-145.45;100.00;62759.84;5300320;28;41997;-77
2022/04/15 02:10:42;;;;;;;45.95;21.98;;;;;;;-145.45;100.00;62759.84;5299902;28;20034;-77
2022/04/15 02:13:13;;;;;;;43.83;22.85;;;;;;;-145.45;100.00;62759.84;5301824;28;20476;-78
2022/04/15 02:15:44;;;;;;;39.95;22.00;;;;;;;-145.45;100.00;62759.84;5301296;28;20507;-78
2022/04/15 02:18:15;;;;;;;41.88;20.55;;;;;;;-145.45;100.00;62759.84;5295831;28;20515;-78
2022/04/15 02:20:47;;;;;;;40.08;20.17;;;;;;;-145.45;100.00;62759.84;5299165;28;20086;-77
2022/04/15 02:23:18;;;;;;;46.13;24.60;;;;;;;-145.45;100.00;62759.84;5301953;28;20027;-77
2022/04/15 02:25:49;;;;;;;65.72;30.77;;;;;;;-145.45;100.00;62759.84;5284082;28;20098;-78
2022/04/15 02:28:21;;;;;;;60.63;28.38;;;;;;;-145.45;100.00;62759.84;5284074;28;20035;-77
2022/04/15 02:30:52;;;;;;;61.90;29.70;;;;;;;-145.45;100.00;62759.84;5284038;28;20146;-78
2022/04/15 02:33:24;;;;;;;39.92;20.30;;;;;;;-145.45;100.00;62759.84;5302720;28;20028;-77
2022/04/15 02:35:55;;;;;;;47.88;23.45;;;;;;;-145.45;100.00;62759.84;5301196;28;20039;-77
2022/04/15 02:38:27;;;;;;;43.15;21.48;;;;;;;-145.45;100.00;62759.84;5299552;28;20081;-77
2022/04/15 02:40:58;;;;;;;45.85;22.70;;;;;;;-145.45;100.00;62759.84;5282154;28;20033;-79
2022/04/15 02:43:33;;;;;;;49.08;23.35;;;;;;;-145.45;100.00;62759.84;5302730;28;20862;-79
2022/04/15 02:46:07;;;;;;;45.78;22.33;;;;;;;-145.45;100.00;62759.84;5300140;28;20028;-79
2022/04/15 02:48:39;;;;;;;47.35;23.33;;;;;;;-145.45;100.00;62759.84;5300620;28;20033;-79
2022/04/15 02:51:10;;;;;;;46.22;22.92;;;;;;;-145.45;100.00;62759.84;5281839;28;20054;-79
2022/04/15 02:53:42;;;;;;;50.72;23.65;;;;;;;-145.45;100.00;62759.84;5306936;28;20492;-79
2022/04/15 02:56:13;;;;;;;48.75;24.83;;;;;;;-145.45;100.00;62759.84;5303053;28;20425;-79
2022/04/15 02:58:44;;;;;;;51.13;26.27;;;;;;;-145.45;100.00;62759.84;5312767;28;20025;-79
2022/04/15 03:01:15;;;;;;;52.75;24.40;;;;;;;-145.45;100.00;62759.84;5290550;28;29882;-79
2022/04/15 03:03:47;;;;;;;53.20;24.88;;;;;;;-145.45;100.00;62759.84;5298402;28;20020;-79
2022/04/15 03:06:18;;;;;;;52.28;25.55;;;;;;;-145.45;100.00;62759.84;5299132;28;20048;-77
2022/04/15 03:08:49;;;;;;;64.13;28.88;;;;;;;-145.45;100.00;62759.84;5300736;28;20170;-77
2022/04/15 03:11:21;;;;;;;63.13;28.50;;;;;;;-145.45;100.00;62759.84;5305634;28;20132;-77
2022/04/15 03:13:52;;;;;;;63.78;28.80;;;;;;;-145.45;100.00;62759.84;5293705;28;20043;-77
2022/04/15 03:16:23;;;;;;;71.22;30.45;;;;;;;-145.45;100.00;62759.84;5313809;28;20396;-77
2022/04/15 03:18:55;;;;;;;71.20;29.83;;;;;;;-145.45;100.00;62759.84;5311743;28;20374;-78
2022/04/15 03:21:26;;;;;;;60.53;28.30;;;;;;;-145.45;100.00;62759.84;5315931;28;20111;-78
2022/04/15 03:23:58;;;;;;;55.63;26.45;;;;;;;-145.45;100.00;62759.84;5294545;28;20120;-78
2022/04/15 03:26:29;;;;;;;65.32;29.15;;;;;;;-145.45;100.00;62759.84;5294997;28;20047;-78
2022/04/15 03:29:00;;;;;;;57.85;27.73;;;;;;;-145.45;100.00;62759.84;5293669;28;20090;-78
2022/04/15 03:31:31;;;;;;;67.18;31.15;;;;;;;-145.45;100.00;62759.84;5310875;28;20028;-78
2022/04/15 03:34:03;;;;;;;58.72;25.83;;;;;;;-145.45;100.00;62759.84;5295062;28;20027;-78
2022/04/15 03:36:34;;;;;;;58.10;26.65;;;;;;;-145.45;100.00;62759.84;5312861;28;20042;-78
2022/04/15 03:39:05;;;;;;;47.65;22.20;;;;;;;-145.45;100.00;62759.84;5314783;28;20036;-78
2022/04/15 03:41:37;;;;;;;58.60;26.05;;;;;;;-145.45;100.00;62759.84;5313932;28;20103;-78
2022/04/15 03:44:08;;;;;;;56.13;24.33;;;;;;;-145.45;100.00;62759.84;5313321;28;20051;-78
2022/04/15 03:46:40;;;;;;;48.45;24.25;;;;;;;-145.45;100.00;62759.84;5317435;28;20079;-78
2022/04/15 03:49:11;;;;;;;54.42;22.77;;;;;;;-145.45;100.00;62759.84;5311756;28;20032;-78
2022/04/15 03:51:43;;;;;;;53.75;24.60;;;;;;;-145.45;100.00;62759.84;5311520;28;20400;-78
2022/04/15 03:54:14;;;;;;;63.55;26.48;;;;;;;-145.45;100.00;62759.84;5314529;28;20186;-78
2022/04/15 03:56:46;;;;;;;59.50;26.30;;;;;;;-145.45;100.00;62759.84;5296971;28;20384;-78
2022/04/15 03:59:18;;;;;;;57.92;25.90;;;;;;;-145.45;100.00;62759.84;5292782;28;20032;-78
2022/04/15 04:01:49;;;;;;;76.57;32.13;;;;;;;-145.45;100.00;62759.84;5311970;28;20473;-78
2022/04/15 04:04:20;;;;;;;83.32;31.98;;;;;;;-145.45;100.00;62759.84;5313877;28;20098;-79
2022/04/15 04:06:51;;;;;;;71.28;30.75;;;;;;;-145.45;100.00;62759.84;5313717;28;20031;-78
2022/04/15 04:09:23;;;;;;;72.25;34.35;;;;;;;-145.45;100.00;62759.84;5315908;28;32664;-77
2022/04/15 04:11:54;;;;;;;120.47;43.30;;;;;;;-145.45;100.00;62759.84;5315463;28;20024;-77
2022/04/15 04:14:25;;;;;;;96.15;35.05;;;;;;;-145.45;100.00;62759.84;5320153;28;20074;-77
2022/04/15 04:16:56;;;;;;;280.15;55.33;;;;;;;-145.45;100.00;62759.84;5308807;28;20128;-77
2022/04/15 04:19:28;;;;;;;202.60;52.38;;;;;;;-145.45;100.00;62759.84;5310960;28;20032;-78
2022/04/15 04:21:59;;;;;;;393.08;58.42;;;;;;;-145.45;100.00;62759.84;5313819;28;20099;-78
2022/04/15 04:24:31;;;;;;;388.88;58.15;;;;;;;-145.45;100.00;62759.84;5317763;28;20388;-78
2022/04/15 04:27:02;;;;;;;376.92;54.72;;;;;;;-145.45;100.00;62759.84;5311631;28;20044;-78
2022/04/15 04:29:33;;;;;;;365.52;59.08;;;;;;;-145.45;100.00;62759.84;5284775;28;20036;-78
2022/04/15 04:32:05;;;;;;;301.02;59.75;;;;;;;-145.45;100.00;62759.84;5283561;28;20538;-78
2022/04/15 04:34:36;;;;;;;222.25;54.50;;;;;;;-145.45;100.00;62759.84;5282438;28;20417;-78
2022/04/15 04:37:07;;;;;;;330.20;56.05;;;;;;;-145.45;100.00;62759.84;5297291;28;20029;-78
2022/04/15 04:39:39;;;;;;;245.43;45.65;;;;;;;-145.45;100.00;62759.84;5298518;28;20033;-78
2022/04/15 04:42:10;;;;;;;173.55;44.72;;;;;;;-145.45;100.00;62759.84;5299439;28;20029;-78
2022/04/15 04:44:42;;;;;;;294.63;56.38;;;;;;;-145.45;100.00;62759.84;5297167;28;20390;-78
2022/04/15 04:47:14;;;;;;;311.00;53.10;;;;;;;-145.45;100.00;62759.84;5308624;28;20040;-78
2022/04/15 04:49:45;;;;;;;159.57;43.75;;;;;;;-145.45;100.00;62759.84;5310294;28;20031;-77
2022/04/15 04:52:17;;;;;;;208.40;47.05;;;;;;;-145.45;100.00;62759.84;5295306;28;20306;-77
2022/04/15 04:54:48;;;;;;;266.25;53.63;;;;;;;-145.45;100.00;62759.84;5281520;28;20122;-78
2022/04/15 04:57:20;;;;;;;171.10;45.80;;;;;;;-145.45;100.00;62759.84;5295638;28;20089;-77
2022/04/15 04:59:51;;;;;;;211.25;49.22;;;;;;;-145.45;100.00;62759.84;5291097;28;20078;-78
2022/04/15 05:02:23;;;;;;;255.43;44.85;;;;;;;-145.45;100.00;62759.84;5306981;28;20048;-77
2022/04/15 05:04:54;;;;;;;236.13;41.78;;;;;;;-145.45;100.00;62759.84;5302613;28;20028;-77
2022/04/15 05:07:25;;;;;;;169.82;37.78;;;;;;;-145.45;100.00;62759.84;5302752;28;20017;-77
2022/04/15 05:09:57;;;;;;;215.77;38.38;;;;;;;-145.45;100.00;62759.84;5303641;28;20025;-77
2022/04/15 05:12:28;;;;;;;123.18;34.78;;;;;;;-145.45;100.00;62759.84;5288669;28;20052;-78
2022/04/15 05:14:59;;;;;;;154.40;33.05;;;;;;;-145.45;100.00;62759.84;5298877;28;42422;-77
2022/04/15 05:17:31;;;;;;;149.18;32.47;;;;;;;-145.45;100.00;62759.84;5300969;28;20382;-78
2022/04/15 05:20:02;;;;;;;145.13;35.08;;;;;;;-145.45;100.00;62759.84;5290507;28;20163;-77
2022/04/15 05:22:34;;;;;;;147.25;33.67;;;;;;;-145.45;100.00;62759.84;5290119;28;20025;-77
2022/04/15 05:25:05;;;;;;;146.43;33.58;;;;;;;-145.45;100.00;62759.84;5324803;28;20028;-77
2022/04/15 05:27:37;;;;;;;116.68;33.58;;;;;;;-145.45;100.00;62759.84;5321353;27;20016;-77
2022/04/15 05:30:08;;;;;;;124.75;35.05;;;;;;;-145.45;100.00;62759.84;5306754;28;20028;-77
2022/04/15 05:32:40;;;;;;;122.00;33.92;;;;;;;-145.45;100.00;62759.84;5289232;28;20112;-78
2022/04/15 05:35:11;;;;;;;206.45;36.72;;;;;;;-145.45;100.00;62759.84;5285838;28;20021;-78
2022/04/15 05:37:42;;;;;;;124.88;32.80;;;;;;;-145.45;100.00;62759.84;5301342;28;20391;-78
2022/04/15 05:40:14;;;;;;;87.53;32.45;;;;;;;-145.45;100.00;62759.84;5328545;28;20391;-77
2022/04/15 05:42:45;;;;;;;86.88;31.35;;;;;;;-145.45;100.00;62759.84;5327671;28;20088;-77
2022/04/15 05:45:16;;;;;;;103.53;33.47;;;;;;;-145.45;100.00;62759.84;5309992;28;20194;-78
2022/04/15 05:47:48;;;;;;;93.10;35.00;;;;;;;-145.45;100.00;62759.84;5327538;28;20085;-78
2022/04/15 05:50:20;;;;;;;77.20;31.80;;;;;;;-145.45;100.00;62759.84;5328211;28;20036;-78
2022/04/15 05:52:51;;;;;;;82.88;32.90;;;;;;;-145.45;100.00;62759.84;5312208;28;20025;-78
2022/04/15 05:55:22;;;;;;;88.63;31.83;;;;;;;-145.45;100.00;62759.84;5310450;28;20036;-77
2022/04/15 05:57:54;;;;;;;80.65;32.10;;;;;;;-145.45;100.00;62759.84;5317013;28;20110;-77
2022/04/15 06:00:25;;;;;;;71.32;32.20;;;;;;;-145.45;100.00;62759.84;5316197;28;20807;-77
2022/04/15 06:02:56;;;;;;;103.20;34.83;;;;;;;-145.45;100.00;62759.84;5292228;28;20150;-77
2022/04/15 06:05:28;;;;;;;72.28;29.48;;;;;;;-145.45;100.00;62759.84;5303845;28;20028;-77
2022/04/15 06:07:59;;;;;;;71.75;31.02;;;;;;;-145.45;100.00;62759.84;5307279;28;20024;-77
2022/04/15 06:10:31;;;;;;;62.17;32.85;;;;;;;-145.45;100.00;62759.84;5306628;28;20021;-77
2022/04/15 06:13:09;;;;;;;77.60;34.40;;;;;;;-145.45;100.00;62759.84;5305281;28;20352;-77
2022/04/15 06:15:41;;;;;;;66.40;31.63;;;;;;;-145.45;100.00;62759.84;5305510;28;20481;-77
2022/04/15 06:18:13;;;;;;;57.03;30.63;;;;;;;-145.45;100.00;62759.84;5320087;28;20026;-77
2022/04/15 06:20:45;;;;;;;52.38;29.77;;;;;;;-145.45;100.00;62759.84;5314212;28;20363;-77
2022/04/15 06:23:17;;;;;;;54.92;30.00;;;;;;;-145.45;100.00;62759.84;5285169;28;20024;-77
2022/04/15 06:25:48;;;;;;;58.10;29.95;;;;;;;-145.45;100.00;62759.84;5305968;28;20500;-77
2022/04/15 06:28:21;;;;;;;50.83;29.33;;;;;;;-145.45;100.00;62759.84;5287920;28;20106;-76
2022/04/15 06:30:54;;;;;;;62.38;30.88;;;;;;;-145.45;100.00;62759.84;5305056;28;20112;-77
2022/04/15 06:33:25;;;;;;;59.20;30.40;;;;;;;-145.45;100.00;62759.84;5305774;28;20511;-76
2022/04/15 06:35:56;;;;;;;45.88;27.30;;;;;;;-145.45;100.00;62759.84;5287087;28;20020;-77
2022/04/15 06:38:28;;;;;;;55.08;30.05;;;;;;;-145.45;100.00;62759.84;5286143;28;20060;-77
2022/04/15 06:41:00;;;;;;;57.97;31.02;;;;;;;-145.45;100.00;62759.84;5305399;28;20063;-77
2022/04/15 06:43:31;;;;;;;48.15;28.83;;;;;;;-145.45;100.00;62759.84;5305763;28;20060;-77
2022/04/15 06:46:03;;;;;;;49.75;30.85;;;;;;;-145.45;100.00;62759.84;5305167;28;20116;-77
2022/04/15 06:48:34;;;;;;;44.50;28.30;;;;;;;-145.45;100.00;62759.84;5326674;28;20024;-77
2022/04/15 06:51:06;;;;;;;47.00;28.02;;;;;;;-145.45;100.00;62759.84;5326699;28;20028;-77
2022/04/15 06:53:37;;;;;;;39.58;23.85;;;;;;;-145.45;100.00;62759.84;5327787;28;20389;-77
2022/04/15 06:56:10;;;;;;;36.13;24.60;;;;;;;-145.45;100.00;62759.84;5299508;28;20021;-77
2022/04/15 06:58:41;;;;;;;35.05;24.83;;;;;;;-145.45;100.00;62759.84;5284123;28;20095;-77
2022/04/15 07:01:12;;;;;;;35.20;24.83;;;;;;;-145.45;100.00;62759.84;5290753;28;20366;-77
2022/04/15 07:03:44;;;;;;;37.20;26.58;;;;;;;-145.45;100.00;62759.84;5309458;28;20021;-78
2022/04/15 07:06:15;;;;;;;34.47;24.90;;;;;;;-145.45;100.00;62759.84;5305304;28;20036;-78
2022/04/15 07:08:46;;;;;;;35.83;25.33;;;;;;;-145.45;100.00;62759.84;5305134;28;20116;-78
2022/04/15 07:11:17;;;;;;;33.65;24.38;;;;;;;-145.45;100.00;62759.84;5292990;28;20091;-78
2022/04/15 07:13:49;;;;;;;35.55;23.35;;;;;;;-145.45;100.00;62759.84;5338832;28;20052;-77
2022/04/15 07:16:20;;;;;;;39.22;24.90;;;;;;;-145.45;100.00;62759.84;5336703;28;20404;-77
2022/04/15 07:18:52;;;;;;;36.78;25.52;;;;;;;-145.45;100.00;62759.84;5331454;28;20536;-78
2022/04/15 07:21:24;;;;;;;34.88;24.08;;;;;;;-145.45;100.00;62759.84;5333650;28;20016;-77
2022/04/15 07:23:55;;;;;;;35.08;23.45;;;;;;;-145.45;100.00;62759.84;5327685;28;20016;-78
2022/04/15 07:26:27;;;;;;;30.08;23.10;;;;;;;-145.45;100.00;62759.84;5319944;28;20527;-77
2022/04/15 07:28:58;;;;;;;29.88;21.70;;;;;;;-145.45;100.00;62759.84;5305579;28;20112;-78
2022/04/15 07:31:30;;;;;;;25.65;20.20;;;;;;;-145.45;100.00;62759.84;5304949;28;20017;-77
2022/04/15 07:34:01;;;;;;;28.25;20.27;;;;;;;-145.45;100.00;62759.84;5305522;28;20032;-77
2022/04/15 07:39:12;;;;;;;22.48;17.63;;;;;;;-145.45;100.00;62759.84;5303764;28;20497;-77
2022/04/15 07:41:45;;;;;;;28.02;19.30;;;;;;;-145.45;100.00;62759.84;5305177;28;20426;-77
2022/04/15 07:44:17;;;;;;;24.67;18.38;;;;;;;-145.45;100.00;62759.84;5304734;28;20063;-77
2022/04/15 07:46:48;;;;;;;22.80;19.00;;;;;;;-145.45;100.00;62759.84;5285552;28;20040;-77
2022/04/15 07:49:20;;;;;;;25.10;18.88;;;;;;;-145.45;100.00;62759.84;5286506;28;20763;-77
2022/04/15 07:51:51;;;;;;;24.10;18.20;;;;;;;-145.45;100.00;62759.84;5303927;28;20113;-77
2022/04/15 07:54:22;;;;;;;25.33;19.13;;;;;;;-145.45;100.00;62759.84;5304777;28;20059;-77
2022/04/15 07:56:54;;;;;;;23.88;18.38;;;;;;;-145.45;100.00;62759.84;5301202;28;20120;-77
2022/04/15 07:59:25;;;;;;;22.50;18.33;;;;;;;-145.45;100.00;62759.84;5304274;28;20031;-76
2022/04/15 08:01:58;;;;;;;23.77;17.80;;;;;;;-145.45;100.00;62759.84;5303594;28;20377;-77
2022/04/15 08:04:34;;;;;;;18.73;15.65;;;;;;;-145.45;100.00;62759.84;5304299;28;20469;-77
2022/04/15 08:07:06;;;;;;;19.25;15.07;;;;;;;-145.45;100.00;62759.84;5304196;28;20028;-78
2022/04/15 08:09:39;;;;;;;16.23;13.02;;;;;;;-145.45;100.00;62759.84;5304051;28;20032;-77
2022/04/15 08:12:11;;;;;;;18.98;16.83;;;;;;;-145.45;100.00;62759.84;5285230;28;20020;-78
2022/04/15 08:14:42;;;;;;;22.85;16.98;;;;;;;-145.45;100.00;62759.84;5303628;28;20417;-78
2022/04/15 08:17:13;;;;;;;23.05;17.05;;;;;;;-145.45;100.00;62759.84;5286285;28;20037;-76
2022/04/15 08:19:45;;;;;;;22.73;16.45;;;;;;;-145.45;100.00;62759.84;5304376;28;20021;-79
2022/04/15 08:22:16;;;;;;;22.50;15.52;;;;;;;-145.45;100.00;62759.84;5304200;28;20058;-79
2022/04/15 08:24:47;;;;;;;22.35;15.23;;;;;;;-145.45;100.00;62759.84;5304136;28;20393;-79
2022/04/15 08:27:19;;;;;;;20.02;15.73;;;;;;;-145.45;100.00;62759.84;5304016;28;20040;-79
2022/04/15 08:29:50;;;;;;;16.80;13.98;;;;;;;-145.45;100.00;62759.84;5303820;28;20017;-79
2022/04/15 08:32:22;;;;;;;17.73;13.27;;;;;;;-145.45;100.00;62759.84;5310106;28;20020;-77
2022/04/15 08:34:53;;;;;;;15.27;13.02;;;;;;;-145.45;100.00;62759.84;5326753;28;20055;-77
2022/04/15 08:37:24;;;;;;;17.27;12.55;;;;;;;-145.45;100.00;62759.84;5325861;28;20024;-76
2022/04/15 08:39:56;;;;;;;12.38;11.00;;;;;;;-145.45;100.00;62759.84;5324459;28;24683;-77
2022/04/15 08:42:27;;;;;;;14.23;10.80;;;;;;;-145.45;100.00;62759.84;5324930;28;20031;-76
2022/04/15 08:44:59;;;;;;;9.00;8.10;;;;;;;-145.45;100.00;62759.84;5308509;28;20060;-77
2022/04/15 08:47:31;;;;;;;12.07;10.20;;;;;;;-145.45;100.00;62759.84;5303943;28;20442;-77
2022/04/15 08:50:05;;;;;;;11.65;10.40;;;;;;;-145.45;100.00;62759.84;5303620;28;20423;-77
2022/04/15 08:52:36;;;;;;;10.05;9.05;;;;;;;-145.45;100.00;62759.84;5303152;28;20036;-77
2022/04/15 08:55:08;;;;;;;9.70;7.78;;;;;;;-145.45;100.00;62759.84;5310277;28;20035;-77
2022/04/15 08:57:39;;;;;;;12.02;8.65;;;;;;;-145.45;100.00;62759.84;5324410;28;20048;-77
2022/04/15 09:00:11;;;;;;;10.63;8.57;;;;;;;-145.45;100.00;62759.84;5324572;28;20107;-77
2022/04/15 09:02:43;;;;;;;8.68;7.32;;;;;;;-145.45;100.00;62759.84;5314935;28;20040;-77
2022/04/15 09:05:18;;;;;;;9.90;7.50;;;;;;;-145.45;100.00;62759.84;5303788;28;20071;-77
2022/04/15 09:08:01;;;;;;;9.88;7.60;;;;;;;-145.45;100.00;62759.84;5284556;28;20036;-77
2022/04/15 09:10:33;;;;;;;10.65;8.05;;;;;;;-145.45;100.00;62759.84;5305149;28;20025;-77
2022/04/15 09:13:05;;;;;;;9.57;7.70;;;;;;;-145.45;100.00;62759.84;5281980;28;20017;-77
2022/04/15 09:15:37;;;;;;;8.57;7.25;;;;;;;-145.45;100.00;62759.84;5281471;28;20045;-77
2022/04/15 09:18:09;;;;;;;8.43;7.60;;;;;;;-145.45;100.00;62759.84;5282099;28;20029;-77
2022/04/15 09:20:40;;;;;;;9.10;6.88;;;;;;;-145.45;100.00;62759.84;5311101;28;20078;-77
2022/04/15 09:23:11;;;;;;;9.43;6.70;;;;;;;-145.45;100.00;62759.84;5321023;28;20047;-77
2022/04/15 09:25:43;;;;;;;7.45;6.30;;;;;;;-145.45;100.00;62759.84;5324032;28;20056;-77
2022/04/15 09:28:14;;;;;;;9.40;5.75;;;;;;;-145.45;100.00;62759.84;5324458;28;20049;-78
2022/04/15 09:30:46;;;;;;;8.95;6.25;;;;;;;-145.45;100.00;62759.84;5323999;28;20024;-77
2022/04/15 09:33:17;;;;;;;8.40;6.47;;;;;;;-145.45;100.00;62759.84;5325892;28;20027;-77
2022/04/15 09:35:54;;;;;;;7.03;5.78;;;;;;;-145.45;100.00;62759.84;5318597;28;20094;-77
2022/04/15 09:38:44;;;;;;;6.10;5.10;;;;;;;-145.45;100.00;62759.84;5324514;28;20368;-77
2022/04/15 09:41:23;;;;;;;9.00;5.50;;;;;;;-145.45;100.00;62759.84;5323850;28;20074;-78
2022/04/15 09:43:55;;;;;;;7.10;5.40;;;;;;;-145.45;100.00;62759.84;5323991;28;20108;-78
2022/04/15 09:46:29;;;;;;;7.30;5.57;;;;;;;-145.45;100.00;62759.84;5294725;28;20044;-78
2022/04/15 09:49:06;;;;;;;7.70;5.70;;;;;;;-145.45;100.00;62759.84;5321034;28;20078;-77
2022/04/15 09:51:46;;;;;;;6.40;5.28;;;;;;;-145.45;100.00;62759.84;5323492;28;20020;-78
2022/04/15 09:54:25;;;;;;;5.70;4.97;;;;;;;-145.45;100.00;62759.84;5323890;28;20035;-77
2022/04/15 09:56:58;;;;;;;6.68;4.72;;;;;;;-145.45;100.00;62759.84;5323580;28;20443;-77
2022/04/15 09:59:29;;;;;;;5.53;4.90;;;;;;;-145.45;100.00;62759.84;5305709;28;20024;-78
2022/04/15 10:02:05;;;;;;;6.65;5.30;;;;;;;-145.45;100.00;62759.84;5312115;28;20035;-78
2022/04/15 10:04:36;;;;;;;5.65;4.70;;;;;;;-145.45;100.00;62759.84;5285233;28;20029;-78
2022/04/15 10:07:08;;;;;;;4.47;3.95;;;;;;;-145.45;100.00;62759.84;5302558;28;20025;-78
2022/04/15 10:09:41;;;;;;;5.85;4.32;;;;;;;-145.45;100.00;62759.84;5305431;28;20039;-78
2022/04/15 10:12:13;;;;;;;6.13;3.78;;;;;;;-145.45;100.00;62759.84;5303849;28;20032;-78
2022/04/15 10:14:45;;;;;;;4.55;3.55;;;;;;;-145.45;100.00;62759.84;5305258;28;20037;-78
2022/04/15 10:17:20;;;;;;;5.05;3.17;;;;;;;-145.45;100.00;62759.84;5318468;28;20861;-77
2022/04/15 10:19:52;;;;;;;6.35;3.70;;;;;;;-145.45;100.00;62759.84;5327933;28;20417;-78
2022/04/15 10:22:24;;;;;;;5.57;3.20;;;;;;;-145.45;100.00;62759.84;5275442;28;20357;-78
2022/04/15 10:24:55;;;;;;;6.22;3.10;;;;;;;-145.45;100.00;62759.84;5285104;28;20029;-77
2022/04/15 10:27:30;;;;;;;3.88;3.47;;;;;;;-145.45;100.00;62759.84;5265507;28;29189;-77
2022/04/15 10:30:20;;;;;;;7.45;3.97;;;;;;;-145.45;100.00;62759.84;5286283;28;20028;-77
2022/04/15 12:47:38;;;;;;;2.72;2.30;;;;;;;32.03;25.30;102708.84;5406920;27;20417;-79
2022/04/15 12:50:20;;;;;;;7.28;2.72;;;;;;;34.59;23.85;102714.28;5385094;27;20349;-80
2022/04/15 12:52:54;;;;;;;6.43;2.67;;;;;;;35.06;21.43;102710.06;5385034;27;20022;-80
2022/04/15 12:55:30;;;;;;;6.38;3.05;;;;;;;34.04;22.16;102705.84;5364320;27;20031;-80
2022/04/15 12:58:02;;;;;;;;;;;;;;;36.39;21.64;102715.69;5376614;27;20433;-79
2022/04/15 13:00:34;;;;;;;4.05;2.50;;;;;;;34.31;22.42;102716.22;5368543;27;19911;-80
2022/04/15 13:03:05;;;;;;;3.73;3.00;;;;;;;34.35;21.52;102700.75;5364771;27;20384;-78
2022/04/15 13:05:36;;;;;;;10.13;3.00;;;;;;;34.24;22.38;102702.56;5363343;27;38704;-79
2022/04/15 13:08:08;;;;;;;6.32;3.00;;;;;;;32.73;22.17;102715.31;5362962;27;20614;-79
2022/04/15 13:10:40;;;;;;;4.70;3.20;;;;;;;32.50;22.92;102713.44;5372163;27;20440;-78
2022/04/15 13:13:12;;;;;;;3.90;3.00;;;;;;;30.87;24.52;102704.63;5364165;27;20019;-79
2022/04/15 13:15:47;;;;;;;3.35;2.90;;;;;;;31.56;24.40;102715.25;5364183;27;20039;-78
2022/04/15 13:18:19;;;;;;;3.80;2.40;;;;;;;31.55;24.75;102709.97;5363372;27;20441;-78
2022/04/15 13:20:50;;;;;;;4.78;2.60;;;;;;;32.30;23.72;102705.59;5369933;27;20050;-78
2022/04/15 13:23:22;;;;;;;3.63;2.90;;;;;;;33.39;23.23;102704.59;5363184;27;20119;-78
2022/04/15 13:25:53;;;;;;;5.07;2.65;;;;;;;33.23;22.71;102700.75;5363071;27;20110;-78
2022/04/15 13:28:24;;;;;;;3.53;2.83;;;;;;;34.27;21.41;102695.66;5371162;27;20540;-79
2022/04/15 13:30:56;;;;;;;4.35;3.00;;;;;;;32.69;23.73;102698.38;5368064;27;20116;-79
2022/04/15 13:33:27;;;;;;;3.47;2.67;;;;;;;32.47;23.43;102703.75;5374752;27;20563;-78
2022/04/15 13:35:58;;;;;;;3.50;3.03;;;;;;;31.02;25.18;102701.47;5368103;27;20031;-79